Terminal Aerodrome Forecast
Issued by NWS

Home | Current Version | Previous Version | Text Only | Print | Product List | Glossary On
Versions: 1 2 3 4 5 6 7 8 9 10 11 12 13 14 15 16 17 18 19 20 21 22 23 24 25 26 27 28 29 30
000
FTAK31 PANC 022336
TAFATK
TAF
PATK 022336Z 0300/0324 21007KT P6SM -SHRA SCT015 BKN025 OVC035
      TEMPO 0300/0304 SCT025 BKN035
     FM030400 VRB05KT P6SM BKN050 OVC100
     FM030900 34005KT P6SM FEW050 SCT150=

USA.gov is the U.S. government's official web portal to all federal, state and local government web resources and services.